Pagrindinis puslapis
METAR-TAF:

METAR-TAF

Oro uostai :

Ronebis, Švedija

platuma: 56-16N, ilguma: 015-17E, Aukštis: 58 m

Dabartinis oras

Ataskaita buvo paskelbta 13 minutes, ne 22:50 UTC
Vėjas 5 kt iš Šiaurės
Temperatūra 0°C
Drėgmė 100%
Slėgis 1028 hPa
Matomumas 10 km arba daugiau

METAR: ESDF 282250Z AUTO 01005KT 9999 NCD 00/M00 Q1028

Laikas: 00:03 (23:03 UTC)

Prognozė

Ataskaita buvo paskelbta 10 valandos ir 39 minutes, ne 12:24 UTC
Prognozė galioja nuo 28 metu 12 UTC su 28 metu 15 UTC
Vėjas 7 kt iš Šiaurės
Matomumas 10 km arba daugiau
nėra debesų žemiau 1500 m ir nėra kamuolinių lietaus debesų
Tikimybė 40%
nuo 28 metu 12 UTC su 28 metu 13 UTC
Su prošvaistėmis ne aukštis 600 ft

TAF: ESDF 281224Z 2812/2815 01007KT CAVOK PROB40 2812/2813 BKN006

Orai ataskaitas ir orų prognozės (METAR, TAF).

turimą stotys yra geltonos ir raudonos taškus žemėlapyje.

Perkelti pele per norėdami pamatyti stoties vardą.

Tada spustelėkite, norėdami matyti oro stebėjimo ir prognozės.

Norėdami pakeisti žemėlapį: spustelėkite ant žalios mygtukų su juodo kryžiaus žemyn,; žalią mygtuką su brūkšneliu, jei norite nutolinti; arba žalių rodyklių gretimoms žemėlapius.


METAR-TAF: